This is the latest recevied weather packets stored in our database for station/object K7KRJ-10. If no packets are shown the sender has not sent any weather packets the latest 10 day(s).
| Time | Temp. | Humidity | Pressure | Rain* | Wind** | Luminosity | Snow |
|---|---|---|---|---|---|---|---|
| 1777733647 | 27.78° C | 19% | 1012.2 hPa | 0 mm | - | 363 W/m² | - |
| 1777732742 | 27.22° C | 20% | 1012.2 hPa | 0 mm | - | 303 W/m² | - |
| 1777731839 | 26.67° C | 21% | 1012.1 hPa | 0 mm | - | 237 W/m² | - |
| 1777730938 | 25° C | 22% | 1012 hPa | 0 mm | - | 176 W/m² | - |
| 1777730034 | 24.44° C | 23% | 1011.9 hPa | 0 mm | - | 120 W/m² | - |
| 1777729135 | 22.22° C | 25% | 1011.6 hPa | 0 mm | - | 81 W/m² | - |
| 1777728232 | 22.22° C | 24% | 1011.3 hPa | 0 mm | - | 52 W/m² | - |
| 1777727329 | 21.67° C | 24% | 1011.2 hPa | 0 mm | - | 30 W/m² | - |
| 1777726427 | 21.11° C | 25% | 1010.6 hPa | 0 mm | - | 15 W/m² | - |
| 1777725524 | 20.56° C | 25% | 1010.6 hPa | 0 mm | - | 4 W/m² | - |
| 1777724619 | 21.11° C | 25% | 1010.3 hPa | 0 mm | - | 0 W/m² | - |
| 1777723718 | 21.11° C | 25% | 1010.4 hPa | 0 mm | - | 0 W/m² | - |
| 1777722815 | 20.56° C | 27% | 1010.4 hPa | 0 mm | - | 0 W/m² | - |
| 1777721911 | 21.11° C | 25% | 1010.1 hPa | 0 mm | - | 0 W/m² | - |
| 1777721010 | 21.11° C | 25% | 1010 hPa | 0 mm | - | 0 W/m² | - |
| 1777720108 | 21.11° C | 25% | 1010.2 hPa | 0 mm | - | 0 W/m² | - |
| 1777719206 | 21.67° C | 24% | 1010.2 hPa | 0 mm | - | 0 W/m² | - |
| 1777718304 | 22.22° C | 24% | 1009.9 hPa | 0 mm | - | 0 W/m² | - |
| 1777717400 | 21.67° C | 24% | 1009.7 hPa | 0 mm | - | 0 W/m² | - |
| 1777716500 | 22.22° C | 25% | 1010 hPa | 0 mm | - | 0 W/m² | - |
| 1777715600 | 22.78° C | 23% | 1010 hPa | 0 mm | - | 0 W/m² | - |
| 1777714698 | 22.78° C | 23% | 1009.8 hPa | 0 mm | - | 0 W/m² | - |
| 1777713797 | 22.78° C | 23% | 1009.7 hPa | 0 mm | - | 0 W/m² | - |
| 1777712893 | 23.33° C | 22% | 1009.7 hPa | 0 mm | - | 0 W/m² | - |
| 1777711988 | 24.44° C | 21% | 1009.6 hPa | 0 mm | - | 0 W/m² | - |
* Rain latest hour (hover to see other rain measurements)
** Current wind speed in m/s (hover to see current wind gust speed)